createdAt,value
2024-02-26T00:00:47.713Z,18.27
2024-02-26T00:03:50.519Z,14.33
2024-02-26T00:06:55.483Z,16.63
2024-02-26T00:09:58.218Z,14.45
2024-02-26T00:13:00.640Z,14.02
2024-02-26T00:16:04.801Z,16.90
2024-02-26T00:19:07.357Z,14.23
2024-02-26T00:22:10.167Z,15.30
2024-02-26T00:25:13.825Z,13.27
2024-02-26T00:28:16.744Z,17.73
2024-02-26T00:31:19.147Z,16.48
2024-02-26T00:34:21.991Z,17.30
2024-02-26T00:37:24.448Z,17.80
2024-02-26T00:40:27.243Z,19.65
2024-02-26T00:43:29.805Z,19.70
2024-02-26T00:46:32.500Z,18.05
2024-02-26T00:49:34.940Z,19.10
2024-02-26T00:52:37.606Z,16.03
2024-02-26T00:55:40.044Z,15.98
2024-02-26T00:58:42.703Z,18.87
2024-02-26T01:01:45.038Z,19.05
2024-02-26T01:04:47.815Z,17.23
2024-02-26T01:07:50.336Z,18.90
2024-02-26T01:10:53.097Z,10.98
2024-02-26T01:13:57.782Z,16.95
2024-02-26T01:17:00.824Z,16.23
2024-02-26T01:20:03.588Z,13.77
2024-02-26T01:23:06.369Z,12.43
2024-02-26T01:26:08.767Z,12.95
2024-02-26T01:29:11.511Z,11.50
2024-02-26T01:32:14.015Z,9.65
2024-02-26T01:35:16.896Z,15.63
2024-02-26T01:38:19.283Z,8.63
2024-02-26T01:41:21.975Z,13.57
2024-02-26T01:44:24.339Z,18.35
2024-02-26T01:47:28.244Z,11.77
2024-02-26T01:50:30.619Z,12.87
2024-02-26T01:53:33.329Z,6.53
2024-02-26T01:56:36.570Z,14.80
2024-02-26T01:59:41.207Z,11.38
2024-02-26T02:02:45.801Z,12.05
2024-02-26T02:05:48.544Z,13.90
2024-02-26T02:08:50.949Z,11.53
2024-02-26T02:11:53.888Z,13.18
2024-02-26T02:14:56.453Z,15.05
2024-02-26T02:17:59.214Z,9.63
2024-02-26T02:21:02.359Z,12.33
2024-02-26T02:24:05.443Z,15.90
2024-02-26T02:27:07.935Z,11.32
2024-02-26T02:30:12.129Z,12.70
2024-02-26T02:33:16.427Z,14.87
2024-02-26T02:36:19.288Z,18.13
2024-02-26T02:39:22.521Z,15.77
2024-02-26T02:42:25.348Z,14.32
2024-02-26T02:45:27.781Z,16.60
2024-02-26T02:48:30.723Z,15.52
2024-02-26T02:51:33.202Z,16.83
2024-02-26T02:54:36.857Z,14.97
2024-02-26T02:57:42.348Z,13.65
2024-02-26T03:00:45.498Z,11.15
2024-02-26T03:03:47.938Z,14.82
2024-02-26T03:06:50.725Z,16.17
2024-02-26T03:09:53.203Z,14.93
2024-02-26T03:12:57.307Z,12.90
2024-02-26T03:15:59.718Z,14.93
2024-02-26T03:19:02.853Z,11.88
2024-02-26T03:22:05.469Z,11.87
2024-02-26T03:25:08.758Z,17.67
2024-02-26T03:28:11.193Z,14.00
2024-02-26T03:31:13.953Z,15.60
2024-02-26T03:34:16.535Z,17.20
2024-02-26T03:37:19.296Z,14.77
2024-02-26T03:40:21.722Z,16.87
2024-02-26T03:43:27.155Z,14.40
2024-02-26T03:46:29.650Z,16.33
2024-02-26T03:49:32.426Z,16.20
2024-02-26T03:52:35.124Z,14.13
2024-02-26T03:55:38.142Z,11.30
2024-02-26T03:58:40.809Z,10.23
2024-02-26T04:01:48.299Z,15.15
2024-02-26T04:04:51.056Z,11.88
2024-02-26T04:07:53.571Z,10.43
2024-02-26T04:10:56.284Z,13.67
2024-02-26T04:13:58.743Z,13.05
2024-02-26T04:17:01.465Z,13.88
2024-02-26T04:20:04.954Z,14.85
2024-02-26T04:23:07.657Z,13.30
2024-02-26T04:26:10.021Z,17.07
2024-02-26T04:29:12.881Z,13.65
2024-02-26T04:32:15.246Z,14.65
2024-02-26T04:35:18.337Z,13.52
2024-02-26T04:38:20.752Z,14.27
2024-02-26T04:41:23.399Z,13.00
2024-02-26T04:44:25.843Z,13.60
2024-02-26T04:47:28.529Z,17.95
2024-02-26T04:50:30.908Z,13.38
2024-02-26T04:53:33.546Z,13.20
2024-02-26T04:56:35.895Z,9.00
2024-02-26T04:59:38.754Z,16.73
2024-02-26T05:02:41.221Z,13.77
2024-02-26T05:05:44.672Z,14.32
2024-02-26T05:08:47.295Z,16.13
2024-02-26T05:11:50.004Z,17.10
2024-02-26T05:14:52.398Z,9.77
2024-02-26T05:17:55.167Z,16.23
2024-02-26T05:20:57.637Z,14.05
2024-02-26T05:24:00.416Z,15.20
2024-02-26T05:27:03.126Z,13.40
2024-02-26T05:30:06.669Z,16.27
2024-02-26T05:33:13.785Z,13.80
2024-02-26T05:36:23.347Z,16.33
2024-02-26T05:39:25.964Z,12.57
2024-02-26T05:42:28.715Z,13.33
2024-02-26T05:45:31.275Z,13.30
2024-02-26T05:48:34.078Z,9.88
2024-02-26T05:51:36.906Z,12.05
2024-02-26T05:54:39.542Z,12.57
2024-02-26T05:57:42.136Z,14.67
2024-02-26T06:00:44.905Z,11.00
2024-02-26T06:03:47.687Z,20.98
2024-02-26T06:06:50.816Z,17.92
2024-02-26T06:09:53.732Z,9.97
2024-02-26T06:12:56.133Z,18.57
2024-02-26T06:15:58.821Z,14.63
2024-02-26T06:19:01.715Z,12.98
2024-02-26T06:22:04.676Z,11.80
2024-02-26T06:25:07.350Z,8.10
2024-02-26T06:28:10.063Z,16.00
2024-02-26T06:31:12.516Z,15.52
2024-02-26T06:34:15.272Z,11.98
2024-02-26T06:37:17.687Z,11.30
2024-02-26T06:40:20.802Z,13.57
2024-02-26T06:43:23.167Z,12.43
2024-02-26T06:46:27.071Z,18.10
2024-02-26T06:49:30.089Z,12.55
2024-02-26T06:52:32.915Z,13.00
2024-02-26T06:55:35.673Z,14.87
2024-02-26T06:58:38.416Z,9.13
2024-02-26T07:01:44.326Z,11.32
2024-02-26T07:04:47.501Z,16.48
2024-02-26T07:07:50.139Z,16.45
2024-02-26T07:10:53.254Z,15.33
2024-02-26T07:13:56.210Z,13.77
2024-02-26T07:16:59.572Z,14.35
2024-02-26T07:20:03.451Z,16.75
2024-02-26T07:23:07.890Z,10.52
2024-02-26T07:26:12.781Z,14.47
2024-02-26T07:29:15.427Z,15.10
2024-02-26T07:32:18.377Z,12.55
2024-02-26T07:35:20.983Z,12.25
2024-02-26T07:38:32.204Z,9.27
2024-02-26T07:41:48.253Z,12.53
2024-02-26T07:44:50.934Z,14.33
2024-02-26T07:47:53.758Z,11.77
2024-02-26T07:50:56.306Z,12.20
2024-02-26T07:53:59.040Z,13.60
2024-02-26T07:57:02.485Z,11.43
2024-02-26T08:00:08.600Z,10.17
2024-02-26T08:03:11.715Z,10.80
2024-02-26T08:06:14.466Z,7.85
2024-02-26T08:09:17.318Z,9.02
2024-02-26T08:12:19.944Z,9.10
2024-02-26T08:15:22.686Z,11.10
2024-02-26T08:18:25.459Z,10.00
2024-02-26T08:21:28.591Z,9.38
2024-02-26T08:24:31.418Z,8.38
2024-02-26T08:27:34.577Z,6.50
2024-02-26T08:30:37.085Z,6.83
2024-02-26T08:33:40.060Z,7.85
2024-02-26T08:36:44.368Z,7.43
2024-02-26T08:39:47.033Z,9.25
2024-02-26T08:42:49.816Z,6.93
2024-02-26T08:45:52.472Z,8.23
2024-02-26T08:48:55.117Z,6.22
2024-02-26T08:51:57.998Z,6.50
2024-02-26T08:55:00.587Z,4.82
2024-02-26T08:58:03.346Z,7.73
2024-02-26T09:01:05.866Z,6.63
2024-02-26T09:04:09.033Z,6.28
2024-02-26T09:07:11.496Z,4.87
2024-02-26T09:10:14.300Z,5.32
2024-02-26T09:13:16.759Z,5.27
2024-02-26T09:16:19.428Z,4.30
2024-02-26T09:19:21.941Z,4.70
2024-02-26T09:22:24.684Z,3.75
2024-02-26T09:25:27.135Z,5.07
2024-02-26T09:28:32.790Z,4.30
2024-02-26T09:31:35.335Z,3.47
2024-02-26T09:34:38.495Z,3.80
2024-02-26T09:37:41.297Z,2.83
2024-02-26T09:40:44.091Z,4.10
2024-02-26T09:43:49.708Z,5.43
2024-02-26T09:46:53.538Z,7.53
2024-02-26T09:49:57.517Z,3.55
2024-02-26T09:53:01.321Z,5.40
2024-02-26T09:56:04.376Z,3.67
2024-02-26T09:59:11.551Z,2.70
2024-02-26T10:02:15.166Z,5.13
2024-02-26T10:05:21.530Z,2.72
2024-02-26T10:08:24.173Z,2.95
2024-02-26T10:11:26.979Z,3.00
2024-02-26T10:14:29.339Z,3.03
2024-02-26T10:17:32.732Z,3.13
2024-02-26T10:20:35.136Z,4.72
2024-02-26T10:23:37.859Z,2.33
2024-02-26T10:26:47.385Z,5.00
2024-02-26T10:29:52.915Z,6.03
2024-02-26T10:32:55.713Z,4.27
2024-02-26T10:35:58.708Z,2.03
2024-02-26T10:39:03.506Z,2.70
2024-02-26T10:42:10.947Z,2.97
2024-02-26T10:45:13.596Z,7.63
2024-02-26T10:48:16.606Z,3.83
2024-02-26T10:51:30.526Z,5.30
2024-02-26T10:54:34.221Z,4.45
2024-02-26T10:57:41.520Z,2.65
2024-02-26T11:00:45.096Z,3.30
2024-02-26T11:03:50.176Z,3.37
2024-02-26T11:06:56.910Z,2.47
2024-02-26T11:10:04.476Z,3.60
2024-02-26T11:13:07.585Z,3.03
2024-02-26T11:16:10.432Z,2.13
2024-02-26T11:19:15.193Z,2.40
2024-02-26T11:22:21.578Z,3.10
2024-02-26T11:25:27.981Z,3.17
2024-02-26T11:28:31.363Z,3.47
2024-02-26T11:31:37.114Z,3.67
2024-02-26T11:34:40.661Z,2.80
2024-02-26T11:37:52.758Z,3.37
2024-02-26T11:40:55.390Z,2.92
2024-02-26T11:44:06.701Z,3.83
2024-02-26T11:47:19.885Z,4.40
2024-02-26T11:50:40.654Z,3.60
2024-02-26T11:53:49.883Z,3.10
2024-02-26T11:56:53.501Z,4.03
2024-02-26T12:00:08.461Z,4.50
2024-02-26T12:03:13.409Z,2.77
2024-02-26T12:06:15.892Z,3.10
2024-02-26T12:09:37.406Z,3.78
2024-02-26T12:12:40.649Z,4.53
2024-02-26T12:15:56.565Z,4.18
2024-02-26T12:19:00.447Z,4.00
2024-02-26T12:22:03.729Z,4.63
2024-02-26T12:25:06.906Z,5.28
2024-02-26T12:28:09.605Z,3.08
2024-02-26T12:31:11.999Z,5.22
2024-02-26T12:34:15.155Z,3.17
2024-02-26T12:37:17.915Z,2.30
2024-02-26T12:40:21.009Z,4.03
2024-02-26T12:43:23.691Z,2.53
2024-02-26T12:46:26.562Z,5.35
2024-02-26T12:49:29.040Z,5.03
2024-02-26T12:52:36.518Z,3.70
2024-02-26T12:55:41.236Z,4.97
2024-02-26T12:58:44.568Z,4.57
2024-02-26T13:01:47.021Z,6.03
2024-02-26T13:04:50.267Z,3.80
2024-02-26T13:07:54.216Z,4.47
2024-02-26T13:10:57.120Z,2.12
2024-02-26T13:13:59.901Z,2.75
2024-02-26T13:17:03.375Z,2.33
2024-02-26T13:20:07.024Z,2.80
2024-02-26T13:23:13.528Z,2.30
2024-02-26T13:26:16.045Z,2.55
2024-02-26T13:29:21.733Z,2.75
2024-02-26T13:32:24.277Z,2.50
2024-02-26T13:35:27.723Z,2.80
2024-02-26T13:38:30.436Z,1.90
2024-02-26T13:41:33.517Z,2.33
2024-02-26T13:44:40.600Z,4.53
2024-02-26T13:47:43.508Z,1.98
2024-02-26T13:50:47.186Z,3.53
2024-02-26T13:53:50.360Z,2.43
2024-02-26T13:56:53.652Z,3.28
2024-02-26T13:59:56.700Z,6.62
2024-02-26T14:02:59.955Z,4.35
2024-02-26T14:06:03.057Z,2.60
2024-02-26T14:09:06.098Z,5.20
2024-02-26T14:12:09.335Z,8.05
2024-02-26T14:15:11.857Z,11.40
2024-02-26T14:18:14.732Z,10.32
2024-02-26T14:21:17.311Z,7.77
2024-02-26T14:24:24.441Z,7.27
2024-02-26T14:27:27.685Z,12.82
2024-02-26T14:30:30.509Z,18.45
2024-02-26T14:33:33.048Z,13.57
2024-02-26T14:36:35.967Z,7.43
2024-02-26T14:39:38.613Z,8.50
2024-02-26T14:42:42.060Z,7.53
2024-02-26T14:45:44.646Z,6.47
2024-02-26T14:48:47.487Z,5.35
2024-02-26T14:51:49.941Z,4.03
2024-02-26T14:54:52.595Z,3.93
2024-02-26T14:57:55.089Z,5.18
2024-02-26T15:00:58.143Z,5.75
2024-02-26T15:04:01.851Z,3.97
2024-02-26T15:07:05.357Z,4.03
2024-02-26T15:10:08.519Z,3.40
2024-02-26T15:13:11.309Z,3.12
2024-02-26T15:16:21.869Z,2.20
2024-02-26T15:19:24.774Z,4.05
2024-02-26T15:22:27.859Z,3.03
2024-02-26T15:25:31.002Z,3.70
2024-02-26T15:28:33.408Z,3.08
2024-02-26T15:31:37.290Z,4.50
2024-02-26T15:34:39.969Z,4.60
2024-02-26T15:37:43.164Z,3.87
2024-02-26T15:40:47.866Z,2.57
2024-02-26T15:43:51.660Z,3.12
2024-02-26T15:46:54.568Z,4.12
2024-02-26T15:49:58.608Z,4.65
2024-02-26T15:53:01.528Z,4.73
2024-02-26T15:56:04.396Z,6.03
2024-02-26T15:59:06.840Z,5.68
2024-02-26T16:02:09.861Z,10.27
2024-02-26T16:05:13.894Z,8.52
2024-02-26T16:08:21.902Z,9.60
2024-02-26T16:11:24.836Z,7.90
2024-02-26T16:14:47.757Z,10.65
2024-02-26T16:17:53.181Z,15.70
2024-02-26T16:20:55.880Z,63.33
2024-02-26T16:24:00.101Z,8.47
2024-02-26T16:27:02.613Z,51.80
2024-02-26T16:30:06.125Z,20.27
2024-02-26T16:33:08.754Z,13.62
2024-02-26T16:36:13.571Z,3.40
2024-02-26T16:39:16.122Z,9.57
2024-02-26T16:42:19.772Z,8.27
2024-02-26T16:45:22.512Z,7.68
2024-02-26T16:48:25.402Z,3.65
2024-02-26T16:51:27.957Z,2.50
2024-02-26T16:54:31.073Z,4.23
2024-02-26T16:57:33.841Z,4.37
2024-02-26T17:00:36.850Z,4.57
2024-02-26T17:03:39.963Z,5.20
2024-02-26T17:06:43.005Z,3.42
2024-02-26T17:09:45.549Z,3.50
2024-02-26T17:12:48.234Z,3.60
2024-02-26T17:15:50.806Z,4.68
2024-02-26T17:18:54.162Z,4.43
2024-02-26T17:21:56.797Z,3.33
2024-02-26T17:24:59.896Z,5.70
2024-02-26T17:28:03.010Z,7.20
2024-02-26T17:31:05.681Z,4.72
2024-02-26T17:34:10.106Z,5.10
2024-02-26T17:37:12.865Z,5.28
2024-02-26T17:40:15.450Z,5.33
2024-02-26T17:43:18.802Z,7.93
2024-02-26T17:46:21.610Z,5.75
2024-02-26T17:49:27.174Z,6.32
2024-02-26T17:52:35.191Z,5.20
2024-02-26T17:55:37.890Z,5.53
2024-02-26T17:58:42.988Z,4.40
2024-02-26T18:01:45.756Z,6.30
2024-02-26T18:04:48.528Z,4.25
2024-02-26T18:07:52.266Z,4.43
2024-02-26T18:10:54.924Z,5.47
2024-02-26T18:13:58.449Z,7.00
2024-02-26T18:17:01.257Z,6.60
2024-02-26T18:20:05.643Z,9.13
2024-02-26T18:23:08.348Z,6.05
2024-02-26T18:26:11.525Z,4.57
2024-02-26T18:29:14.169Z,7.80
2024-02-26T18:32:17.184Z,6.28
2024-02-26T18:35:20.430Z,5.43
2024-02-26T18:38:22.979Z,4.82
2024-02-26T18:41:26.097Z,4.67
2024-02-26T18:44:28.683Z,3.63
2024-02-26T18:47:31.984Z,4.93
2024-02-26T18:50:34.465Z,4.57
2024-02-26T18:53:37.370Z,4.78
2024-02-26T18:56:39.800Z,4.83
2024-02-26T18:59:44.532Z,6.37
2024-02-26T19:02:47.391Z,10.07
2024-02-26T19:05:50.263Z,7.80
2024-02-26T19:08:53.290Z,6.47
2024-02-26T19:11:57.786Z,5.07
2024-02-26T19:15:00.583Z,5.87
2024-02-26T19:18:05.612Z,5.62
2024-02-26T19:21:08.550Z,6.00
2024-02-26T19:24:11.377Z,4.47
2024-02-26T19:27:15.037Z,6.00
2024-02-26T19:30:18.000Z,6.83
2024-02-26T19:33:22.297Z,8.00
2024-02-26T19:36:25.198Z,6.05
2024-02-26T19:39:29.045Z,7.37
2024-02-26T19:42:31.980Z,7.30
2024-02-26T19:45:34.606Z,5.77
2024-02-26T19:48:39.837Z,7.12
2024-02-26T19:51:43.602Z,8.15
2024-02-26T19:54:46.788Z,8.85
2024-02-26T19:57:49.574Z,9.87
2024-02-26T20:00:52.590Z,6.37
2024-02-26T20:03:55.343Z,6.35
2024-02-26T20:06:57.874Z,7.45
2024-02-26T20:10:00.749Z,10.50
2024-02-26T20:13:03.935Z,8.23
2024-02-26T20:16:07.639Z,8.40
2024-02-26T20:19:12.550Z,7.03
2024-02-26T20:22:15.442Z,6.95
2024-02-26T20:25:17.907Z,7.32
2024-02-26T20:28:20.609Z,8.33
2024-02-26T20:31:22.977Z,5.13
2024-02-26T20:34:25.990Z,6.32
2024-02-26T20:37:29.612Z,7.32
2024-02-26T20:40:33.118Z,5.82
2024-02-26T20:43:35.672Z,4.53
2024-02-26T20:46:44.523Z,4.13
2024-02-26T20:49:47.495Z,3.65
2024-02-26T20:52:51.754Z,5.28
2024-02-26T20:55:54.150Z,3.80
2024-02-26T20:58:56.845Z,4.73
2024-02-26T21:01:59.313Z,6.77
2024-02-26T21:05:02.178Z,6.20
2024-02-26T21:08:09.234Z,4.25
2024-02-26T21:11:16.309Z,5.10
2024-02-26T21:14:18.867Z,3.83
2024-02-26T21:17:21.565Z,5.33
2024-02-26T21:20:26.124Z,3.85
2024-02-26T21:23:28.862Z,5.37
2024-02-26T21:26:31.251Z,4.57
2024-02-26T21:29:33.984Z,5.67
2024-02-26T21:32:36.501Z,4.30
2024-02-26T21:35:39.457Z,4.90
2024-02-26T21:38:49.758Z,6.65
2024-02-26T21:41:53.423Z,5.00
2024-02-26T21:44:56.037Z,4.80
2024-02-26T21:47:58.930Z,4.37
2024-02-26T21:51:05.754Z,4.50
2024-02-26T21:54:08.455Z,6.87
2024-02-26T21:57:10.931Z,5.18
2024-02-26T22:00:14.031Z,4.63
2024-02-26T22:03:16.780Z,4.73
2024-02-26T22:06:19.314Z,5.07
2024-02-26T22:09:22.037Z,4.43
2024-02-26T22:12:24.577Z,7.53
2024-02-26T22:15:27.403Z,4.37
2024-02-26T22:18:29.992Z,5.07
2024-02-26T22:21:34.127Z,4.70
2024-02-26T22:24:37.711Z,5.00
2024-02-26T22:27:40.656Z,5.65
2024-02-26T22:30:43.153Z,4.73
2024-02-26T22:33:46.718Z,5.87
2024-02-26T22:36:50.499Z,6.28
2024-02-26T22:39:53.342Z,4.78
2024-02-26T22:42:57.071Z,5.10
2024-02-26T22:46:00.102Z,4.60
2024-02-26T22:49:02.580Z,6.53
2024-02-26T22:52:05.972Z,4.55
2024-02-26T22:55:08.706Z,5.68
2024-02-26T22:58:11.364Z,5.32
2024-02-26T23:01:13.820Z,4.50
2024-02-26T23:04:16.548Z,5.90
2024-02-26T23:07:19.102Z,5.15
2024-02-26T23:10:22.749Z,6.53
2024-02-26T23:13:25.168Z,5.10
2024-02-26T23:16:29.006Z,6.63
2024-02-26T23:19:34.646Z,6.87
2024-02-26T23:22:45.316Z,4.10
2024-02-26T23:25:47.768Z,3.95
2024-02-26T23:28:50.776Z,4.65
2024-02-26T23:31:53.189Z,4.63
2024-02-26T23:34:56.059Z,4.53
2024-02-26T23:37:58.557Z,6.62
2024-02-26T23:41:02.081Z,4.75
2024-02-26T23:44:04.758Z,5.10
2024-02-26T23:47:07.733Z,6.23
2024-02-26T23:50:10.420Z,4.50
2024-02-26T23:53:13.141Z,5.55
2024-02-26T23:56:15.550Z,4.97
2024-02-26T23:59:20.510Z,3.78
